sensor_id;sensor_type;location;lat;lon;timestamp;pressure;altitude;pressure_sealevel;temperature
63689;BMP280;54895;40.928;14.480;2023-05-24T00:00:27;100697.09;;;20.81
63689;BMP280;54895;40.928;14.480;2023-05-24T00:02:53;100678.25;;;20.71
63689;BMP280;54895;40.928;14.480;2023-05-24T00:05:22;100669.47;;;20.71
63689;BMP280;54895;40.928;14.480;2023-05-24T00:07:49;100665.56;;;20.63
63689;BMP280;54895;40.928;14.480;2023-05-24T00:10:15;100673.31;;;20.68
63689;BMP280;54895;40.928;14.480;2023-05-24T00:12:42;100694.41;;;20.81
63689;BMP280;54895;40.928;14.480;2023-05-24T00:15:08;100706.97;;;20.88
63689;BMP280;54895;40.928;14.480;2023-05-24T00:17:35;100746.59;;;21.39
63689;BMP280;54895;40.928;14.480;2023-05-24T00:20:10;100780.47;;;21.40
63689;BMP280;54895;40.928;14.480;2023-05-24T00:22:37;100769.59;;;21.17
63689;BMP280;54895;40.928;14.480;2023-05-24T00:25:04;100755.59;;;21.09
63689;BMP280;54895;40.928;14.480;2023-05-24T00:27:31;100764.81;;;20.83
63689;BMP280;54895;40.928;14.480;2023-05-24T00:29:58;100724.28;;;20.51
63689;BMP280;54895;40.928;14.480;2023-05-24T00:32:25;100706.84;;;20.42
63689;BMP280;54895;40.928;14.480;2023-05-24T00:34:51;100717.22;;;20.57
63689;BMP280;54895;40.928;14.480;2023-05-24T00:37:18;100722.22;;;20.72
63689;BMP280;54895;40.928;14.480;2023-05-24T00:39:44;100720.78;;;20.60
63689;BMP280;54895;40.928;14.480;2023-05-24T00:42:10;100729.22;;;20.54
63689;BMP280;54895;40.928;14.480;2023-05-24T00:44:37;100691.53;;;20.35
63689;BMP280;54895;40.928;14.480;2023-05-24T00:47:03;100681.16;;;20.32
63689;BMP280;54895;40.928;14.480;2023-05-24T00:49:30;100666.97;;;20.31
63689;BMP280;54895;40.928;14.480;2023-05-24T00:51:56;100665.66;;;20.32
63689;BMP280;54895;40.928;14.480;2023-05-24T00:54:23;100669.13;;;20.23
63689;BMP280;54895;40.928;14.480;2023-05-24T00:56:52;100648.84;;;20.22
63689;BMP280;54895;40.928;14.480;2023-05-24T00:59:18;100645.91;;;20.18
63689;BMP280;54895;40.928;14.480;2023-05-24T01:01:45;100630.78;;;20.04
63689;BMP280;54895;40.928;14.480;2023-05-24T01:04:13;100627.25;;;20.01
63689;BMP280;54895;40.928;14.480;2023-05-24T01:09:27;100645.63;;;20.14
63689;BMP280;54895;40.928;14.480;2023-05-24T01:18:10;100651.72;;;20.15
63689;BMP280;54895;40.928;14.480;2023-05-24T01:20:39;100655.63;;;20.23
63689;BMP280;54895;40.928;14.480;2023-05-24T01:28:27;100666.59;;;20.25
63689;BMP280;54895;40.928;14.480;2023-05-24T01:30:54;100676.22;;;20.28
63689;BMP280;54895;40.928;14.480;2023-05-24T01:33:23;100689.88;;;20.30
63689;BMP280;54895;40.928;14.480;2023-05-24T01:35:50;100692.25;;;20.36
63689;BMP280;54895;40.928;14.480;2023-05-24T01:38:16;100691.22;;;20.20
63689;BMP280;54895;40.928;14.480;2023-05-24T01:40:43;100667.22;;;20.14
63689;BMP280;54895;40.928;14.480;2023-05-24T01:43:20;100673.09;;;20.11
63689;BMP280;54895;40.928;14.480;2023-05-24T01:49:39;100675.88;;;20.22
63689;BMP280;54895;40.928;14.480;2023-05-24T01:52:08;100694.13;;;20.12
63689;BMP280;54895;40.928;14.480;2023-05-24T01:54:38;100680.13;;;20.04
63689;BMP280;54895;40.928;14.480;2023-05-24T01:57:09;100683.06;;;20.08
63689;BMP280;54895;40.928;14.480;2023-05-24T01:59:37;100670.22;;;19.97
63689;BMP280;54895;40.928;14.480;2023-05-24T02:02:05;100652.84;;;20.00
63689;BMP280;54895;40.928;14.480;2023-05-24T02:04:32;100665.81;;;20.13
63689;BMP280;54895;40.928;14.480;2023-05-24T02:06:59;100705.38;;;20.30
63689;BMP280;54895;40.928;14.480;2023-05-24T02:09:26;100703.00;;;20.24
63689;BMP280;54895;40.928;14.480;2023-05-24T02:11:52;100686.03;;;20.12
63689;BMP280;54895;40.928;14.480;2023-05-24T02:14:18;100688.53;;;20.20
63689;BMP280;54895;40.928;14.480;2023-05-24T02:16:46;100678.94;;;20.07
63689;BMP280;54895;40.928;14.480;2023-05-24T02:19:13;100658.72;;;19.97
63689;BMP280;54895;40.928;14.480;2023-05-24T02:21:40;100664.53;;;19.93
63689;BMP280;54895;40.928;14.480;2023-05-24T02:24:06;100668.28;;;19.88
63689;BMP280;54895;40.928;14.480;2023-05-24T02:26:33;100654.25;;;19.80
63689;BMP280;54895;40.928;14.480;2023-05-24T02:28:59;100644.50;;;19.75
63689;BMP280;54895;40.928;14.480;2023-05-24T02:31:28;100633.63;;;19.64
63689;BMP280;54895;40.928;14.480;2023-05-24T02:33:57;100622.97;;;19.56
63689;BMP280;54895;40.928;14.480;2023-05-24T02:36:42;100641.13;;;19.65
63689;BMP280;54895;40.928;14.480;2023-05-24T02:39:10;100630.78;;;19.62
63689;BMP280;54895;40.928;14.480;2023-05-24T02:41:36;100666.56;;;19.93
63689;BMP280;54895;40.928;14.480;2023-05-24T02:44:03;100728.00;;;20.25
63689;BMP280;54895;40.928;14.480;2023-05-24T02:46:29;100693.88;;;19.87
63689;BMP280;54895;40.928;14.480;2023-05-24T02:48:55;100671.53;;;19.66
63689;BMP280;54895;40.928;14.480;2023-05-24T02:51:22;100654.84;;;19.48
63689;BMP280;54895;40.928;14.480;2023-05-24T02:53:49;100649.00;;;19.52
63689;BMP280;54895;40.928;14.480;2023-05-24T02:56:16;100628.09;;;19.31
63689;BMP280;54895;40.928;14.480;2023-05-24T02:58:45;100641.53;;;19.50
63689;BMP280;54895;40.928;14.480;2023-05-24T03:01:12;100656.09;;;19.57
63689;BMP280;54895;40.928;14.480;2023-05-24T03:03:39;100658.41;;;19.51
63689;BMP280;54895;40.928;14.480;2023-05-24T03:06:06;100661.66;;;19.49
63689;BMP280;54895;40.928;14.480;2023-05-24T03:08:33;100666.16;;;19.56
63689;BMP280;54895;40.928;14.480;2023-05-24T03:10:59;100644.25;;;19.01
63689;BMP280;54895;40.928;14.480;2023-05-24T03:13:26;100633.44;;;19.10
63689;BMP280;54895;40.928;14.480;2023-05-24T03:15:52;100679.72;;;19.47
63689;BMP280;54895;40.928;14.480;2023-05-24T03:18:18;100733.97;;;19.81
63689;BMP280;54895;40.928;14.480;2023-05-24T03:20:47;100710.59;;;19.34
63689;BMP280;54895;40.928;14.480;2023-05-24T03:23:13;100666.50;;;19.11
63689;BMP280;54895;40.928;14.480;2023-05-24T03:25:40;100660.13;;;19.06
63689;BMP280;54895;40.928;14.480;2023-05-24T03:28:06;100636.72;;;18.99
63689;BMP280;54895;40.928;14.480;2023-05-24T03:30:33;100652.84;;;19.18
63689;BMP280;54895;40.928;14.480;2023-05-24T03:32:59;100664.38;;;19.19
63689;BMP280;54895;40.928;14.480;2023-05-24T03:35:26;100722.75;;;19.54
63689;BMP280;54895;40.928;14.480;2023-05-24T03:37:53;100725.03;;;19.48
63689;BMP280;54895;40.928;14.480;2023-05-24T03:40:20;100726.91;;;19.46
63689;BMP280;54895;40.928;14.480;2023-05-24T03:42:55;100675.59;;;19.15
63689;BMP280;54895;40.928;14.480;2023-05-24T03:45:32;100641.72;;;18.93
63689;BMP280;54895;40.928;14.480;2023-05-24T03:47:58;100648.25;;;18.90
63689;BMP280;54895;40.928;14.480;2023-05-24T03:50:25;100638.06;;;18.79
63689;BMP280;54895;40.928;14.480;2023-05-24T03:52:51;100625.03;;;18.76
63689;BMP280;54895;40.928;14.480;2023-05-24T03:55:18;100635.78;;;18.85
63689;BMP280;54895;40.928;14.480;2023-05-24T03:57:44;100635.31;;;18.98
63689;BMP280;54895;40.928;14.480;2023-05-24T04:00:12;100641.13;;;19.04
63689;BMP280;54895;40.928;14.480;2023-05-24T04:02:45;100682.56;;;19.39
63689;BMP280;54895;40.928;14.480;2023-05-24T04:05:12;100697.78;;;19.44
63689;BMP280;54895;40.928;14.480;2023-05-24T04:07:39;100732.91;;;19.65
63689;BMP280;54895;40.928;14.480;2023-05-24T04:10:06;100707.75;;;19.32
63689;BMP280;54895;40.928;14.480;2023-05-24T04:12:33;100660.81;;;19.16
63689;BMP280;54895;40.928;14.480;2023-05-24T04:15:00;100663.69;;;19.39
63689;BMP280;54895;40.928;14.480;2023-05-24T04:17:27;100675.63;;;19.46
63689;BMP280;54895;40.928;14.480;2023-05-24T04:20:00;100682.25;;;19.54
63689;BMP280;54895;40.928;14.480;2023-05-24T04:22:27;100688.56;;;19.68
63689;BMP280;54895;40.928;14.480;2023-05-24T04:24:53;100706.00;;;19.77
63689;BMP280;54895;40.928;14.480;2023-05-24T04:27:20;100800.44;;;20.47
63689;BMP280;54895;40.928;14.480;2023-05-24T04:29:47;100821.75;;;20.43
63689;BMP280;54895;40.928;14.480;2023-05-24T04:32:18;100804.53;;;20.27
63689;BMP280;54895;40.928;14.480;2023-05-24T04:34:44;100796.53;;;20.29
63689;BMP280;54895;40.928;14.480;2023-05-24T04:37:11;100777.63;;;20.08
63689;BMP280;54895;40.928;14.480;2023-05-24T04:39:44;100773.63;;;20.09
63689;BMP280;54895;40.928;14.480;2023-05-24T04:42:11;100761.00;;;20.02
63689;BMP280;54895;40.928;14.480;2023-05-24T04:44:41;100766.00;;;19.96
63689;BMP280;54895;40.928;14.480;2023-05-24T04:47:07;100754.16;;;19.80
63689;BMP280;54895;40.928;14.480;2023-05-24T04:49:35;100744.00;;;19.90
63689;BMP280;54895;40.928;14.480;2023-05-24T04:52:01;100746.97;;;19.94
63689;BMP280;54895;40.928;14.480;2023-05-24T04:54:28;100771.84;;;20.44
63689;BMP280;54895;40.928;14.480;2023-05-24T04:56:54;100785.09;;;20.61
63689;BMP280;54895;40.928;14.480;2023-05-24T04:59:21;100786.50;;;20.94
63689;BMP280;54895;40.928;14.480;2023-05-24T05:01:47;100807.53;;;21.40
63689;BMP280;54895;40.928;14.480;2023-05-24T05:04:13;100813.66;;;21.29
63689;BMP280;54895;40.928;14.480;2023-05-24T05:06:40;100811.09;;;21.54
63689;BMP280;54895;40.928;14.480;2023-05-24T05:09:08;100813.69;;;21.52
63689;BMP280;54895;40.928;14.480;2023-05-24T05:11:35;100831.84;;;21.61
63689;BMP280;54895;40.928;14.480;2023-05-24T05:14:02;100839.25;;;21.95
63689;BMP280;54895;40.928;14.480;2023-05-24T05:16:28;100852.81;;;21.95
63689;BMP280;54895;40.928;14.480;2023-05-24T05:18:55;100821.22;;;21.42
63689;BMP280;54895;40.928;14.480;2023-05-24T05:21:23;100796.94;;;21.44
63689;BMP280;54895;40.928;14.480;2023-05-24T05:23:49;100812.75;;;21.59
63689;BMP280;54895;40.928;14.480;2023-05-24T05:26:16;100802.13;;;21.40
63689;BMP280;54895;40.928;14.480;2023-05-24T05:28:42;100806.75;;;21.72
63689;BMP280;54895;40.928;14.480;2023-05-24T05:31:08;100819.34;;;21.90
63689;BMP280;54895;40.928;14.480;2023-05-24T05:33:35;100831.19;;;22.20
63689;BMP280;54895;40.928;14.480;2023-05-24T05:36:01;100845.28;;;22.52
63689;BMP280;54895;40.928;14.480;2023-05-24T05:38:28;100849.16;;;22.49
63689;BMP280;54895;40.928;14.480;2023-05-24T05:40:54;100864.47;;;22.68
63689;BMP280;54895;40.928;14.480;2023-05-24T05:43:20;100852.56;;;22.61
63689;BMP280;54895;40.928;14.480;2023-05-24T05:45:47;100852.91;;;22.67
63689;BMP280;54895;40.928;14.480;2023-05-24T05:48:13;100905.00;;;23.27
63689;BMP280;54895;40.928;14.480;2023-05-24T05:50:39;100888.63;;;23.00
63689;BMP280;54895;40.928;14.480;2023-05-24T05:53:06;100902.63;;;23.33
63689;BMP280;54895;40.928;14.480;2023-05-24T05:55:32;100900.56;;;23.20
63689;BMP280;54895;40.928;14.480;2023-05-24T05:57:58;100899.66;;;23.16
63689;BMP280;54895;40.928;14.480;2023-05-24T06:00:25;100899.53;;;23.14
63689;BMP280;54895;40.928;14.480;2023-05-24T06:02:51;100892.53;;;23.22
63689;BMP280;54895;40.928;14.480;2023-05-24T06:05:18;100903.47;;;23.49
63689;BMP280;54895;40.928;14.480;2023-05-24T06:07:44;100918.41;;;23.75
63689;BMP280;54895;40.928;14.480;2023-05-24T06:10:12;100922.91;;;23.57
63689;BMP280;54895;40.928;14.480;2023-05-24T06:12:38;100934.00;;;23.74
63689;BMP280;54895;40.928;14.480;2023-05-24T06:15:08;100928.78;;;23.78
63689;BMP280;54895;40.928;14.480;2023-05-24T06:17:35;100928.47;;;23.34
63689;BMP280;54895;40.928;14.480;2023-05-24T06:20:03;100914.53;;;23.15
63689;BMP280;54895;40.928;14.480;2023-05-24T06:22:33;100912.34;;;23.25
63689;BMP280;54895;40.928;14.480;2023-05-24T06:25:02;100961.56;;;24.21
63689;BMP280;54895;40.928;14.480;2023-05-24T06:27:28;100956.84;;;23.70
63689;BMP280;54895;40.928;14.480;2023-05-24T06:29:55;100961.28;;;23.90
63689;BMP280;54895;40.928;14.480;2023-05-24T06:32:22;100964.81;;;23.79
63689;BMP280;54895;40.928;14.480;2023-05-24T06:34:49;100970.78;;;23.89
63689;BMP280;54895;40.928;14.480;2023-05-24T06:37:15;100973.34;;;23.87
63689;BMP280;54895;40.928;14.480;2023-05-24T06:39:41;100990.31;;;24.26
63689;BMP280;54895;40.928;14.480;2023-05-24T06:42:08;100995.78;;;24.39
63689;BMP280;54895;40.928;14.480;2023-05-24T06:44:37;100993.84;;;24.55
63689;BMP280;54895;40.928;14.480;2023-05-24T06:47:03;101021.16;;;25.00
63689;BMP280;54895;40.928;14.480;2023-05-24T06:49:30;101036.63;;;25.37
63689;BMP280;54895;40.928;14.480;2023-05-24T06:51:57;101050.03;;;25.49
63689;BMP280;54895;40.928;14.480;2023-05-24T06:54:23;101047.63;;;25.55
63689;BMP280;54895;40.928;14.480;2023-05-24T06:56:52;101054.53;;;25.87
63689;BMP280;54895;40.928;14.480;2023-05-24T06:59:19;101060.31;;;26.10
63689;BMP280;54895;40.928;14.480;2023-05-24T07:01:45;101026.72;;;25.30
63689;BMP280;54895;40.928;14.480;2023-05-24T07:04:14;101039.56;;;25.72
63689;BMP280;54895;40.928;14.480;2023-05-24T07:06:40;101044.41;;;25.89
63689;BMP280;54895;40.928;14.480;2023-05-24T07:09:07;101051.50;;;26.12
63689;BMP280;54895;40.928;14.480;2023-05-24T07:11:35;101052.69;;;25.47
63689;BMP280;54895;40.928;14.480;2023-05-24T07:14:01;101050.00;;;25.62
63689;BMP280;54895;40.928;14.480;2023-05-24T07:16:27;101050.03;;;25.78
63689;BMP280;54895;40.928;14.480;2023-05-24T07:18:54;101065.59;;;25.75
63689;BMP280;54895;40.928;14.480;2023-05-24T07:21:20;101078.44;;;25.73
63689;BMP280;54895;40.928;14.480;2023-05-24T07:23:49;101074.72;;;25.82
63689;BMP280;54895;40.928;14.480;2023-05-24T07:26:16;101080.03;;;26.24
63689;BMP280;54895;40.928;14.480;2023-05-24T07:28:42;101078.22;;;26.46
63689;BMP280;54895;40.928;14.480;2023-05-24T07:31:09;101080.38;;;26.32
63689;BMP280;54895;40.928;14.480;2023-05-24T07:33:35;101070.25;;;26.34
63689;BMP280;54895;40.928;14.480;2023-05-24T07:36:04;101076.84;;;26.45
63689;BMP280;54895;40.928;14.480;2023-05-24T07:38:30;101068.31;;;26.70
63689;BMP280;54895;40.928;14.480;2023-05-24T07:41:01;101068.59;;;26.93
63689;BMP280;54895;40.928;14.480;2023-05-24T07:43:28;101072.50;;;26.88
63689;BMP280;54895;40.928;14.480;2023-05-24T07:45:54;101070.84;;;26.99
63689;BMP280;54895;40.928;14.480;2023-05-24T07:48:22;101071.34;;;27.11
63689;BMP280;54895;40.928;14.480;2023-05-24T07:50:49;101073.78;;;26.70
63689;BMP280;54895;40.928;14.480;2023-05-24T07:53:18;101069.13;;;26.90
63689;BMP280;54895;40.928;14.480;2023-05-24T07:55:46;101075.16;;;27.21
63689;BMP280;54895;40.928;14.480;2023-05-24T07:58:12;101070.50;;;27.60
63689;BMP280;54895;40.928;14.480;2023-05-24T08:00:39;101069.09;;;27.59
63689;BMP280;54895;40.928;14.480;2023-05-24T08:05:32;101075.53;;;27.14
63689;BMP280;54895;40.928;14.480;2023-05-24T08:07:58;101072.91;;;27.16
63689;BMP280;54895;40.928;14.480;2023-05-24T08:10:25;101076.63;;;27.42
63689;BMP280;54895;40.928;14.480;2023-05-24T08:12:51;101080.47;;;27.35
63689;BMP280;54895;40.928;14.480;2023-05-24T08:15:19;101085.31;;;27.19
63689;BMP280;54895;40.928;14.480;2023-05-24T08:17:47;101089.72;;;26.93
63689;BMP280;54895;40.928;14.480;2023-05-24T08:20:13;101087.09;;;26.95
63689;BMP280;54895;40.928;14.480;2023-05-24T08:22:42;101081.00;;;27.14
63689;BMP280;54895;40.928;14.480;2023-05-24T08:25:09;101083.78;;;27.50
63689;BMP280;54895;40.928;14.480;2023-05-24T08:27:36;101075.00;;;27.35
63689;BMP280;54895;40.928;14.480;2023-05-24T08:30:03;101087.50;;;27.76
63689;BMP280;54895;40.928;14.480;2023-05-24T08:32:30;101087.50;;;27.76
63689;BMP280;54895;40.928;14.480;2023-05-24T08:34:57;101077.63;;;27.67
63689;BMP280;54895;40.928;14.480;2023-05-24T08:37:23;101089.28;;;27.87
63689;BMP280;54895;40.928;14.480;2023-05-24T08:39:50;101091.59;;;28.14
63689;BMP280;54895;40.928;14.480;2023-05-24T08:42:16;101092.94;;;28.13
63689;BMP280;54895;40.928;14.480;2023-05-24T08:44:52;101092.56;;;27.47
63689;BMP280;54895;40.928;14.480;2023-05-24T08:47:24;101089.84;;;28.03
63689;BMP280;54895;40.928;14.480;2023-05-24T08:49:52;101082.31;;;28.23
63689;BMP280;54895;40.928;14.480;2023-05-24T08:52:20;101084.94;;;28.19
63689;BMP280;54895;40.928;14.480;2023-05-24T08:54:48;101076.56;;;28.35
63689;BMP280;54895;40.928;14.480;2023-05-24T08:57:15;101094.59;;;27.83
63689;BMP280;54895;40.928;14.480;2023-05-24T08:59:43;101102.88;;;27.85
63689;BMP280;54895;40.928;14.480;2023-05-24T09:02:12;101091.66;;;28.76
63689;BMP280;54895;40.928;14.480;2023-05-24T09:04:40;101088.34;;;29.25
63689;BMP280;54895;40.928;14.480;2023-05-24T09:07:06;101088.66;;;28.68
63689;BMP280;54895;40.928;14.480;2023-05-24T09:09:34;101097.91;;;29.24
63689;BMP280;54895;40.928;14.480;2023-05-24T09:12:04;101095.25;;;29.49
63689;BMP280;54895;40.928;14.480;2023-05-24T09:14:33;101099.06;;;28.95
63689;BMP280;54895;40.928;14.480;2023-05-24T09:17:02;101094.09;;;28.47
63689;BMP280;54895;40.928;14.480;2023-05-24T09:19:29;101101.81;;;28.95
63689;BMP280;54895;40.928;14.480;2023-05-24T09:21:56;101113.63;;;29.45
63689;BMP280;54895;40.928;14.480;2023-05-24T09:24:23;101105.03;;;28.88
63689;BMP280;54895;40.928;14.480;2023-05-24T09:26:51;101099.13;;;28.74
63689;BMP280;54895;40.928;14.480;2023-05-24T09:29:21;101106.31;;;29.30
63689;BMP280;54895;40.928;14.480;2023-05-24T09:31:54;101108.25;;;29.49
63689;BMP280;54895;40.928;14.480;2023-05-24T09:34:20;101105.81;;;30.07
63689;BMP280;54895;40.928;14.480;2023-05-24T09:36:46;101115.38;;;30.34
63689;BMP280;54895;40.928;14.480;2023-05-24T09:39:18;101111.28;;;30.07
63689;BMP280;54895;40.928;14.480;2023-05-24T09:41:51;101112.84;;;29.89
63689;BMP280;54895;40.928;14.480;2023-05-24T09:44:25;101108.03;;;29.89
63689;BMP280;54895;40.928;14.480;2023-05-24T09:46:53;101107.25;;;29.61
63689;BMP280;54895;40.928;14.480;2023-05-24T09:49:26;101117.31;;;29.53
63689;BMP280;54895;40.928;14.480;2023-05-24T09:51:53;101118.13;;;29.58
63689;BMP280;54895;40.928;14.480;2023-05-24T09:54:19;101121.38;;;30.26
63689;BMP280;54895;40.928;14.480;2023-05-24T09:56:45;101112.81;;;30.67
63689;BMP280;54895;40.928;14.480;2023-05-24T09:59:12;101103.09;;;30.09
63689;BMP280;54895;40.928;14.480;2023-05-24T10:01:39;101116.06;;;30.07
63689;BMP280;54895;40.928;14.480;2023-05-24T10:04:05;101110.69;;;29.85
63689;BMP280;54895;40.928;14.480;2023-05-24T10:06:34;101110.38;;;30.24
63689;BMP280;54895;40.928;14.480;2023-05-24T10:09:03;101098.63;;;31.08
63689;BMP280;54895;40.928;14.480;2023-05-24T10:11:32;101112.59;;;30.59
63689;BMP280;54895;40.928;14.480;2023-05-24T10:13:58;101105.84;;;30.64
63689;BMP280;54895;40.928;14.480;2023-05-24T10:16:25;101092.25;;;30.70
63689;BMP280;54895;40.928;14.480;2023-05-24T10:18:51;101108.09;;;30.44
63689;BMP280;54895;40.928;14.480;2023-05-24T10:21:22;101107.44;;;30.73
63689;BMP280;54895;40.928;14.480;2023-05-24T10:23:51;101097.78;;;31.33
63689;BMP280;54895;40.928;14.480;2023-05-24T10:26:20;101099.66;;;31.59
63689;BMP280;54895;40.928;14.480;2023-05-24T10:28:51;101104.00;;;31.68
63689;BMP280;54895;40.928;14.480;2023-05-24T10:33:46;101108.09;;;31.67
63689;BMP280;54895;40.928;14.480;2023-05-24T10:36:14;101090.09;;;30.96
63689;BMP280;54895;40.928;14.480;2023-05-24T10:38:41;101093.41;;;30.90
63689;BMP280;54895;40.928;14.480;2023-05-24T10:41:39;101090.53;;;31.16
63689;BMP280;54895;40.928;14.480;2023-05-24T10:44:17;101087.06;;;31.15
63689;BMP280;54895;40.928;14.480;2023-05-24T10:47:08;101077.72;;;31.26
63689;BMP280;54895;40.928;14.480;2023-05-24T10:49:35;101084.41;;;31.52
63689;BMP280;54895;40.928;14.480;2023-05-24T10:52:09;101066.75;;;31.63
63689;BMP280;54895;40.928;14.480;2023-05-24T10:54:35;101074.72;;;32.24
63689;BMP280;54895;40.928;14.480;2023-05-24T10:57:05;101080.84;;;32.21
63689;BMP280;54895;40.928;14.480;2023-05-24T10:59:32;101087.63;;;32.57
63689;BMP280;54895;40.928;14.480;2023-05-24T11:02:07;101067.41;;;32.88
63689;BMP280;54895;40.928;14.480;2023-05-24T11:04:45;101084.63;;;32.43
63689;BMP280;54895;40.928;14.480;2023-05-24T11:07:15;101080.66;;;32.52
63689;BMP280;54895;40.928;14.480;2023-05-24T11:09:42;101073.25;;;32.62
63689;BMP280;54895;40.928;14.480;2023-05-24T11:12:16;101072.97;;;32.94
63689;BMP280;54895;40.928;14.480;2023-05-24T11:14:47;101069.41;;;33.42
63689;BMP280;54895;40.928;14.480;2023-05-24T11:17:14;101061.34;;;32.50
63689;BMP280;54895;40.928;14.480;2023-05-24T11:19:49;101065.19;;;32.33
63689;BMP280;54895;40.928;14.480;2023-05-24T11:22:19;101059.19;;;32.01
63689;BMP280;54895;40.928;14.480;2023-05-24T11:24:45;101058.06;;;32.16
63689;BMP280;54895;40.928;14.480;2023-05-24T11:27:13;101045.59;;;32.11
63689;BMP280;54895;40.928;14.480;2023-05-24T11:29:41;101050.97;;;31.31
63689;BMP280;54895;40.928;14.480;2023-05-24T11:32:07;101045.38;;;31.99
63689;BMP280;54895;40.928;14.480;2023-05-24T11:34:34;101050.44;;;31.75
63689;BMP280;54895;40.928;14.480;2023-05-24T11:37:01;101043.16;;;32.31
63689;BMP280;54895;40.928;14.480;2023-05-24T11:39:32;101044.44;;;31.48
63689;BMP280;54895;40.928;14.480;2023-05-24T11:41:59;101033.78;;;32.07
63689;BMP280;54895;40.928;14.480;2023-05-24T11:44:28;101038.19;;;32.69
63689;BMP280;54895;40.928;14.480;2023-05-24T11:46:57;101032.44;;;32.53
63689;BMP280;54895;40.928;14.480;2023-05-24T11:49:24;101034.66;;;32.17
63689;BMP280;54895;40.928;14.480;2023-05-24T11:51:53;101028.25;;;32.48
63689;BMP280;54895;40.928;14.480;2023-05-24T11:54:20;101032.59;;;32.63
63689;BMP280;54895;40.928;14.480;2023-05-24T11:56:47;101035.88;;;32.51
63689;BMP280;54895;40.928;14.480;2023-05-24T11:59:15;101014.63;;;32.60
63689;BMP280;54895;40.928;14.480;2023-05-24T12:01:42;101026.19;;;33.02
63689;BMP280;54895;40.928;14.480;2023-05-24T12:04:09;101026.06;;;33.51
63689;BMP280;54895;40.928;14.480;2023-05-24T12:06:38;101029.91;;;32.69
63689;BMP280;54895;40.928;14.480;2023-05-24T12:09:07;101029.41;;;32.35
63689;BMP280;54895;40.928;14.480;2023-05-24T12:11:38;101037.78;;;32.41
63689;BMP280;54895;40.928;14.480;2023-05-24T12:14:10;101042.13;;;32.54
63689;BMP280;54895;40.928;14.480;2023-05-24T12:16:37;101040.91;;;32.65
63689;BMP280;54895;40.928;14.480;2023-05-24T12:19:04;101046.81;;;32.45
63689;BMP280;54895;40.928;14.480;2023-05-24T12:21:33;101037.50;;;32.68
63689;BMP280;54895;40.928;14.480;2023-05-24T12:24:09;101033.88;;;32.58
63689;BMP280;54895;40.928;14.480;2023-05-24T12:26:41;101028.59;;;32.74
63689;BMP280;54895;40.928;14.480;2023-05-24T12:29:11;101023.22;;;32.35
63689;BMP280;54895;40.928;14.480;2023-05-24T12:31:43;101025.25;;;32.32
63689;BMP280;54895;40.928;14.480;2023-05-24T12:34:22;101027.00;;;32.59
63689;BMP280;54895;40.928;14.480;2023-05-24T12:36:49;101028.56;;;32.23
63689;BMP280;54895;40.928;14.480;2023-05-24T12:39:23;101015.03;;;32.40
63689;BMP280;54895;40.928;14.480;2023-05-24T12:41:54;101019.75;;;32.32
63689;BMP280;54895;40.928;14.480;2023-05-24T12:44:29;101015.75;;;32.41
63689;BMP280;54895;40.928;14.480;2023-05-24T12:46:57;101012.28;;;32.38
63689;BMP280;54895;40.928;14.480;2023-05-24T12:49:24;101006.03;;;32.85
63689;BMP280;54895;40.928;14.480;2023-05-24T12:51:52;101009.44;;;32.84
63689;BMP280;54895;40.928;14.480;2023-05-24T12:54:22;101007.13;;;33.22
63689;BMP280;54895;40.928;14.480;2023-05-24T12:56:49;101002.38;;;32.71
63689;BMP280;54895;40.928;14.480;2023-05-24T12:59:15;100998.72;;;33.08
63689;BMP280;54895;40.928;14.480;2023-05-24T13:01:41;101006.91;;;32.50
63689;BMP280;54895;40.928;14.480;2023-05-24T13:04:08;101001.78;;;32.27
63689;BMP280;54895;40.928;14.480;2023-05-24T13:06:36;100995.31;;;32.11
63689;BMP280;54895;40.928;14.480;2023-05-24T13:09:04;101000.47;;;31.91
63689;BMP280;54895;40.928;14.480;2023-05-24T13:11:31;100999.66;;;32.73
63689;BMP280;54895;40.928;14.480;2023-05-24T13:13:58;100995.16;;;32.99
63689;BMP280;54895;40.928;14.480;2023-05-24T13:16:25;100995.31;;;32.58
63689;BMP280;54895;40.928;14.480;2023-05-24T13:18:52;100994.09;;;32.22
63689;BMP280;54895;40.928;14.480;2023-05-24T13:21:18;101003.78;;;32.25
63689;BMP280;54895;40.928;14.480;2023-05-24T13:23:45;100991.78;;;32.04
63689;BMP280;54895;40.928;14.480;2023-05-24T13:26:11;101001.47;;;32.07
63689;BMP280;54895;40.928;14.480;2023-05-24T13:28:38;101005.22;;;31.86
63689;BMP280;54895;40.928;14.480;2023-05-24T13:31:04;101006.97;;;32.07
63689;BMP280;54895;40.928;14.480;2023-05-24T13:33:31;101005.59;;;31.67
63689;BMP280;54895;40.928;14.480;2023-05-24T13:35:58;101026.16;;;32.46
63689;BMP280;54895;40.928;14.480;2023-05-24T13:38:24;101018.69;;;31.68
63689;BMP280;54895;40.928;14.480;2023-05-24T13:40:51;101002.16;;;29.80
63689;BMP280;54895;40.928;14.480;2023-05-24T13:43:21;100976.84;;;29.08
63689;BMP280;54895;40.928;14.480;2023-05-24T13:45:48;100975.06;;;28.48
63689;BMP280;54895;40.928;14.480;2023-05-24T13:48:14;100966.56;;;28.19
63689;BMP280;54895;40.928;14.480;2023-05-24T13:50:40;100958.94;;;28.37
63689;BMP280;54895;40.928;14.480;2023-05-24T13:53:07;100948.34;;;28.49
63689;BMP280;54895;40.928;14.480;2023-05-24T13:55:34;100949.75;;;28.71
63689;BMP280;54895;40.928;14.480;2023-05-24T13:58:03;100950.03;;;28.81
63689;BMP280;54895;40.928;14.480;2023-05-24T14:00:30;100960.75;;;28.30
63689;BMP280;54895;40.928;14.480;2023-05-24T14:02:58;100959.06;;;27.59
63689;BMP280;54895;40.928;14.480;2023-05-24T14:05:25;100966.75;;;27.84
63689;BMP280;54895;40.928;14.480;2023-05-24T14:07:54;100965.06;;;28.37
63689;BMP280;54895;40.928;14.480;2023-05-24T14:10:21;100978.09;;;27.76